Time;durP1;ratioP1;P1;durP2;ratioP2;P2;SDS_P1;SDS_P2;PMS_P1;PMS_P2;Temp;Humidity;BMP_temperature;BMP_pressure;BME280_temperature;BME280_humidity;BME280_pressure;Samples;Min_cycle;Max_cycle;Signal;HPM_P1;HPM_P2
2022/12/14 00:01:10;;;;;;;0.05;0.05;;;;;;;-4.83;100.00;100764.84;10486300;28;20052;-78
2022/12/14 00:06:25;;;;;;;0.03;0.03;;;;;;;-4.81;100.00;100754.91;10507054;28;20048;-79
2022/12/14 00:11:27;;;;;;;0.10;0.10;;;;;;;-4.80;100.00;100750.00;10508728;28;20062;-79
2022/12/14 00:16:31;;;;;;;1.02;0.93;;;;;;;-4.82;100.00;100736.44;10492383;28;20045;-79
2022/12/14 00:21:33;;;;;;;0.00;0.00;;;;;;;-4.80;100.00;100739.94;10495566;28;20071;-79
2022/12/14 00:26:35;;;;;;;0.50;0.40;;;;;;;-4.87;100.00;100727.63;10492859;28;20487;-79
2022/12/14 00:31:40;;;;;;;0.10;0.10;;;;;;;-4.87;100.00;100717.56;10495117;28;20040;-79
2022/12/14 00:36:41;;;;;;;0.00;0.00;;;;;;;-4.88;100.00;100719.97;10517071;28;20056;-79
2022/12/14 00:41:43;;;;;;;0.00;0.00;;;;;;;-4.87;100.00;100716.69;10515853;28;20095;-79
2022/12/14 00:46:44;;;;;;;0.90;0.88;;;;;;;-4.83;100.00;100717.09;10499960;28;20487;-78
2022/12/14 00:51:55;;;;;;;0.03;0.03;;;;;;;-4.85;100.00;100706.03;10483483;28;20435;-78
2022/12/14 00:57:09;;;;;;;0.15;0.15;;;;;;;-4.85;100.00;100695.97;10512180;28;20071;-78
2022/12/14 01:02:10;;;;;;;0.20;0.15;;;;;;;-4.87;100.00;100699.09;10505974;28;20369;-78
2022/12/14 01:07:12;;;;;;;0.00;0.00;;;;;;;-4.85;100.00;100688.44;10513227;28;20052;-79
2022/12/14 01:12:14;;;;;;;0.40;0.40;;;;;;;-4.91;100.00;100684.53;10498247;28;20123;-77
2022/12/14 01:17:15;;;;;;;0.00;0.00;;;;;;;-4.89;100.00;100668.84;10515045;28;20434;-78
2022/12/14 01:22:17;;;;;;;0.10;0.10;;;;;;;-4.93;100.00;100666.78;10512056;28;20037;-79
2022/12/14 01:27:19;;;;;;;0.20;0.20;;;;;;;-5.03;100.00;100649.22;10492535;28;20036;-78
2022/12/14 01:32:20;;;;;;;0.10;0.10;;;;;;;-5.16;100.00;100638.09;10490658;28;20049;-79
2022/12/14 01:37:22;;;;;;;0.25;0.25;;;;;;;-5.11;100.00;100641.91;10478195;28;20040;-78
2022/12/14 01:42:23;;;;;;;0.08;0.08;;;;;;;-5.13;100.00;100635.88;10496102;28;20040;-78
2022/12/14 01:47:40;;;;;;;0.00;0.00;;;;;;;-5.05;100.00;100641.53;10481402;28;20059;-77
2022/12/14 01:52:45;;;;;;;0.10;0.10;;;;;;;-5.01;100.00;100637.63;10497784;28;20049;-78
2022/12/14 01:58:00;;;;;;;0.40;0.40;;;;;;;-4.98;100.00;100627.84;10499864;28;20056;-78
2022/12/14 02:03:37;;;;;;;1.83;1.33;;;;;;;-5.00;100.00;100632.75;10499635;28;20037;-78
2022/12/14 02:08:42;;;;;;;0.10;0.10;;;;;;;-5.05;100.00;100616.41;10496678;28;20052;-78
2022/12/14 02:13:45;;;;;;;0.52;0.52;;;;;;;-5.19;100.00;100600.19;10488335;28;20480;-81
2022/12/14 02:18:49;;;;;;;0.00;0.00;;;;;;;-5.30;100.00;100598.41;10498957;28;20140;-81
2022/12/14 02:24:28;;;;;;;0.52;0.52;;;;;;;-5.48;100.00;100598.63;10481467;28;20055;-81
2022/12/14 02:30:14;;;;;;;1.05;1.02;;;;;;;-5.37;100.00;100611.19;10485914;28;20048;-81
2022/12/14 02:36:00;;;;;;;0.00;0.00;;;;;;;-5.53;100.00;100602.34;10472578;28;20052;-81
2022/12/14 02:41:22;;;;;;;0.00;0.00;;;;;;;-5.55;100.00;100601.34;10377357;28;20518;-81
2022/12/14 02:46:33;;;;;;;0.10;0.10;;;;;;;-5.65;100.00;100593.78;10481300;28;20445;-81
2022/12/14 02:51:53;;;;;;;0.00;0.00;;;;;;;-5.77;100.00;100584.44;10481145;28;20472;-80
2022/12/14 02:57:12;;;;;;;0.10;0.10;;;;;;;-5.79;100.00;100580.94;10480714;28;20037;-81
2022/12/14 03:02:14;;;;;;;0.00;0.00;;;;;;;-5.90;100.00;100566.56;10467747;28;20040;-81
2022/12/14 03:07:35;;;;;;;0.10;0.10;;;;;;;-5.94;100.00;100574.59;10486205;28;20107;-82
2022/12/14 03:12:41;;;;;;;0.15;0.15;;;;;;;-6.03;100.00;100574.69;10467387;28;20041;-82
2022/12/14 03:17:47;;;;;;;2.40;1.98;;;;;;;-6.13;100.00;100580.53;10466191;28;20508;-82
2022/12/14 03:23:07;;;;;;;0.00;0.00;;;;;;;-6.11;100.00;100574.03;10449794;28;20121;-82
2022/12/14 03:28:17;;;;;;;0.00;0.00;;;;;;;-6.22;100.00;100562.22;10497702;28;20071;-82
2022/12/14 03:33:23;;;;;;;0.00;0.00;;;;;;;-6.29;100.00;100557.41;10466207;28;20040;-81
2022/12/14 03:38:44;;;;;;;0.00;0.00;;;;;;;-6.37;100.00;100552.56;10487695;28;20415;-78
2022/12/14 03:44:26;;;;;;;0.10;0.10;;;;;;;-6.51;100.00;100542.97;10504746;28;20041;-78
2022/12/14 03:49:40;;;;;;;3.00;2.17;;;;;;;-6.58;100.00;100533.16;10501406;28;20072;-78
2022/12/14 03:54:51;;;;;;;0.10;0.10;;;;;;;-6.56;100.00;100540.09;10505568;28;20048;-79
2022/12/14 04:00:04;;;;;;;0.10;0.10;;;;;;;-6.58;100.00;100525.63;10506411;28;20041;-79
2022/12/14 04:05:30;;;;;;;0.00;0.00;;;;;;;-6.74;100.00;100521.75;10526467;28;20067;-79
2022/12/14 04:22:04;;;;;;;0.00;0.00;;;;;;;-6.73;100.00;100505.13;10514822;28;20393;-79
2022/12/14 04:27:18;;;;;;;0.63;0.63;;;;;;;-6.76;100.00;100498.22;10505154;28;20045;-82
2022/12/14 04:32:25;;;;;;;0.85;0.85;;;;;;;-6.76;100.00;100489.81;10471522;28;20098;-81
2022/12/14 04:37:27;;;;;;;0.35;0.35;;;;;;;-6.75;100.00;100487.47;10476487;28;20393;-81
2022/12/14 04:42:34;;;;;;;0.10;0.10;;;;;;;-6.74;100.00;100479.19;10485757;28;20049;-81
2022/12/14 04:47:45;;;;;;;1.15;1.08;;;;;;;-6.65;100.00;100471.59;10472471;28;20045;-82
2022/12/14 04:53:02;;;;;;;0.03;0.03;;;;;;;-6.68;100.00;100468.81;10481100;28;20765;-81
2022/12/14 04:58:17;;;;;;;0.00;0.00;;;;;;;-6.74;100.00;100461.63;10472232;28;20459;-82
2022/12/14 05:03:30;;;;;;;0.00;0.00;;;;;;;-6.77;100.00;100466.41;10484259;28;20102;-82
2022/12/14 05:08:59;;;;;;;0.00;0.00;;;;;;;-6.81;100.00;100454.34;10486623;28;20040;-81
2022/12/14 05:14:05;;;;;;;0.88;0.85;;;;;;;-6.87;100.00;100451.28;10485697;28;20044;-81
2022/12/14 05:19:08;;;;;;;0.30;0.30;;;;;;;-6.91;100.00;100445.13;10485628;28;20060;-81
2022/12/14 05:24:10;;;;;;;0.00;0.00;;;;;;;-6.97;100.00;100446.25;10484639;28;20479;-81
2022/12/14 05:29:11;;;;;;;0.85;0.85;;;;;;;-6.99;100.00;100435.19;10485662;28;20545;-82
2022/12/14 05:34:13;;;;;;;0.00;0.00;;;;;;;-7.07;100.00;100437.91;10484890;28;20044;-82
2022/12/14 05:39:15;;;;;;;0.40;0.40;;;;;;;-7.12;100.00;100438.25;10485410;28;20110;-82
2022/12/14 05:44:17;;;;;;;0.10;0.10;;;;;;;-7.07;100.00;100447.03;10501168;28;20055;-81
2022/12/14 05:49:18;;;;;;;0.00;0.00;;;;;;;-7.02;100.00;100435.81;10468658;28;20110;-82
2022/12/14 05:54:20;;;;;;;0.00;0.00;;;;;;;-6.92;100.00;100445.00;10484887;28;20033;-82
2022/12/14 05:59:22;;;;;;;0.10;0.10;;;;;;;-6.89;100.00;100440.28;10468033;28;20060;-82
2022/12/14 06:04:24;;;;;;;0.20;0.20;;;;;;;-6.91;100.00;100435.13;10468171;28;20446;-82
2022/12/14 06:09:26;;;;;;;0.10;0.10;;;;;;;-6.95;100.00;100437.22;10484595;28;20400;-82
2022/12/14 06:14:27;;;;;;;0.10;0.10;;;;;;;-6.99;100.00;100437.69;10484124;28;20048;-82
2022/12/14 06:19:29;;;;;;;0.30;0.30;;;;;;;-7.04;100.00;100429.78;10483635;28;20048;-82
2022/12/14 06:24:31;;;;;;;0.00;0.00;;;;;;;-7.03;100.00;100434.03;10467143;28;20143;-82
2022/12/14 06:29:32;;;;;;;0.20;0.20;;;;;;;-7.05;100.00;100426.41;10466399;28;20090;-82
2022/12/14 06:34:34;;;;;;;4.90;2.17;;;;;;;-7.03;100.00;100439.91;10488737;28;20040;-82
2022/12/14 06:39:42;;;;;;;0.00;0.00;;;;;;;-7.23;100.00;100419.75;10492611;28;20037;-81
2022/12/14 06:44:44;;;;;;;0.10;0.10;;;;;;;-7.37;100.00;100431.06;10482701;28;20040;-81
2022/12/14 06:49:45;;;;;;;0.00;0.00;;;;;;;-7.37;100.00;100439.44;10482296;28;20036;-81
2022/12/14 06:54:49;;;;;;;0.15;0.15;;;;;;;-7.47;100.00;100436.84;10482406;28;20511;-81
2022/12/14 06:59:50;;;;;;;0.20;0.20;;;;;;;-7.39;100.00;100427.53;10499571;28;20074;-81
2022/12/14 07:04:52;;;;;;;0.00;0.00;;;;;;;-7.60;100.00;100439.88;10481883;28;20049;-81
2022/12/14 07:09:54;;;;;;;0.45;0.45;;;;;;;-7.61;100.00;100447.22;10482742;28;20376;-81
2022/12/14 07:14:56;;;;;;;0.30;0.30;;;;;;;-7.56;100.00;100443.53;10465609;28;20052;-83
2022/12/14 07:19:58;;;;;;;2.80;2.60;;;;;;;-7.67;100.00;100445.06;10499584;28;20426;-81
2022/12/14 07:24:59;;;;;;;0.10;0.10;;;;;;;-7.77;100.00;100442.47;10482752;28;20056;-82
2022/12/14 07:30:01;;;;;;;0.00;0.00;;;;;;;-7.82;100.00;100449.53;10482220;28;20044;-81
2022/12/14 07:35:04;;;;;;;0.10;0.10;;;;;;;-7.88;100.00;100459.84;10483516;28;20044;-83
2022/12/14 07:40:06;;;;;;;1.27;1.17;;;;;;;-8.14;100.00;100455.84;10482607;28;20044;-82
2022/12/14 07:45:08;;;;;;;0.38;0.38;;;;;;;-8.51;100.00;100462.44;10484852;28;20070;-82
2022/12/14 07:50:10;;;;;;;0.63;0.63;;;;;;;-8.20;100.00;100467.78;10491534;28;20047;-82
2022/12/14 07:55:12;;;;;;;0.10;0.10;;;;;;;-8.19;100.00;100471.16;10491472;28;20446;-82
2022/12/14 08:00:14;;;;;;;2.17;1.88;;;;;;;-8.32;100.00;100480.00;10489418;28;20041;-82
2022/12/14 08:05:16;;;;;;;0.00;0.00;;;;;;;-8.24;100.00;100475.72;10489272;28;20062;-82
2022/12/14 08:10:17;;;;;;;0.00;0.00;;;;;;;-8.16;100.00;100481.44;10477598;28;20049;-82
2022/12/14 08:15:19;;;;;;;3.15;2.60;;;;;;;-8.52;100.00;100482.25;10470302;28;20547;-81
2022/12/14 08:20:21;;;;;;;0.10;0.10;;;;;;;-8.67;100.00;100482.56;10466449;28;20041;-81
2022/12/14 08:25:23;;;;;;;0.00;0.00;;;;;;;-8.56;100.00;100483.56;10452419;28;20079;-82
2022/12/14 08:30:24;;;;;;;0.10;0.10;;;;;;;-8.91;100.00;100482.72;10451648;28;20061;-82
2022/12/14 08:35:26;;;;;;;0.30;0.30;;;;;;;-9.04;100.00;100495.63;10456872;28;20467;-82
2022/12/14 08:40:29;;;;;;;0.00;0.00;;;;;;;-9.12;100.00;100492.41;10470717;28;20036;-82
2022/12/14 08:45:31;;;;;;;0.20;0.20;;;;;;;-9.02;100.00;100497.53;10490942;28;20065;-82
2022/12/14 08:50:33;;;;;;;0.10;0.10;;;;;;;-8.84;100.00;100497.56;10495449;28;20052;-82
2022/12/14 08:55:36;;;;;;;0.00;0.00;;;;;;;-8.85;100.00;100499.16;10511037;28;20045;-82
2022/12/14 09:00:39;;;;;;;0.30;0.30;;;;;;;-8.85;100.00;100498.28;10456758;28;20076;-81
2022/12/14 09:05:41;;;;;;;0.25;0.25;;;;;;;-8.80;100.00;100509.59;10447150;28;20049;-81
2022/12/14 09:17:36;;;;;;;0.10;0.10;;;;;;;-7.97;100.00;100514.91;10468281;28;20024;-81
2022/12/14 09:22:38;;;;;;;0.10;0.10;;;;;;;-7.65;100.00;100518.63;10451894;28;20066;-81
2022/12/14 09:27:40;;;;;;;0.47;0.45;;;;;;;-7.24;100.00;100523.13;10481017;28;20052;-82
2022/12/14 09:32:45;;;;;;;0.03;0.03;;;;;;;-6.96;100.00;100511.47;10512430;28;20036;-81
2022/12/14 09:37:52;;;;;;;0.30;0.30;;;;;;;-6.78;100.00;100512.22;10479344;28;20055;-81
2022/12/14 09:43:03;;;;;;;0.05;0.05;;;;;;;-6.64;100.00;100517.56;10443157;28;20044;-80
2022/12/14 09:48:15;;;;;;;0.35;0.35;;;;;;;-6.48;100.00;100503.16;10445222;28;20047;-80
2022/12/14 09:53:19;;;;;;;0.35;0.35;;;;;;;-6.26;100.00;100493.38;10444250;28;20041;-81
2022/12/14 09:58:29;;;;;;;0.10;0.10;;;;;;;-6.14;100.00;100486.00;10443054;28;20400;-80
2022/12/14 10:03:46;;;;;;;0.10;0.10;;;;;;;-6.12;100.00;100471.09;10442026;28;20546;-80
2022/12/14 10:09:08;;;;;;;0.10;0.10;;;;;;;-5.95;100.00;100462.44;10448770;28;20048;-80
2022/12/14 10:14:25;;;;;;;0.00;0.00;;;;;;;-5.83;100.00;100455.09;10459822;28;20037;-80
2022/12/14 10:19:43;;;;;;;0.00;0.00;;;;;;;-5.73;100.00;100445.03;10441444;28;20488;-80
2022/12/14 10:24:49;;;;;;;0.73;0.73;;;;;;;-5.39;100.00;100429.38;10441207;28;20099;-80
2022/12/14 10:30:07;;;;;;;0.20;0.20;;;;;;;-5.35;100.00;100428.91;10441849;28;20041;-81
2022/12/14 10:35:15;;;;;;;1.50;1.40;;;;;;;-5.07;100.00;100426.09;10458917;28;20052;-81
2022/12/14 10:40:30;;;;;;;0.73;0.73;;;;;;;-4.97;100.00;100418.56;10440614;28;20060;-80
2022/12/14 10:46:01;;;;;;;0.10;0.10;;;;;;;-4.58;100.00;100414.94;10441067;28;20131;-80
2022/12/14 10:51:32;;;;;;;0.43;0.40;;;;;;;-4.43;100.00;100410.22;10442706;28;20041;-81
2022/12/14 10:56:40;;;;;;;0.00;0.00;;;;;;;-4.19;100.00;100396.13;10440163;28;20073;-81
2022/12/14 11:01:46;;;;;;;0.25;0.25;;;;;;;-4.08;100.00;100379.34;10441500;28;20120;-81
2022/12/14 11:06:48;;;;;;;8.40;2.85;;;;;;;-3.94;100.00;100370.31;10440462;28;20064;-81
2022/12/14 11:12:02;;;;;;;1.35;1.25;;;;;;;-3.31;100.00;100353.94;10440932;28;20095;-81
2022/12/14 11:17:04;;;;;;;0.20;0.20;;;;;;;-3.01;100.00;100346.81;10456307;28;20040;-81
2022/12/14 11:22:12;;;;;;;0.10;0.10;;;;;;;-3.36;100.00;100340.13;10439134;28;20128;-81
2022/12/14 11:27:22;;;;;;;0.85;0.85;;;;;;;-2.70;100.00;100328.81;10439031;28;20523;-81
2022/12/14 11:32:24;;;;;;;0.55;0.55;;;;;;;-2.47;100.00;100320.34;10455512;28;20052;-83
2022/12/14 11:37:29;;;;;;;0.60;0.35;;;;;;;-1.56;100.00;100305.28;10455870;28;20385;-82
2022/12/14 11:42:32;;;;;;;0.50;0.50;;;;;;;-1.03;100.00;100289.28;10438977;28;20076;-82
2022/12/14 11:47:34;;;;;;;4.80;0.80;;;;;;;-0.75;100.00;100293.50;10439064;28;20459;-83
2022/12/14 11:52:35;;;;;;;0.00;0.00;;;;;;;-1.20;100.00;100293.28;10488073;28;20035;-83
2022/12/14 11:57:52;;;;;;;1.55;0.93;;;;;;;-0.18;100.00;100289.34;10504075;28;20447;-83
2022/12/14 12:03:00;;;;;;;0.00;0.00;;;;;;;0.07;100.00;100284.81;10480606;28;20047;-83
2022/12/14 12:08:02;;;;;;;0.73;0.73;;;;;;;-0.26;100.00;100289.69;10480371;28;20123;-84
2022/12/14 12:13:14;;;;;;;0.30;0.30;;;;;;;0.10;100.00;100290.09;10479704;28;20074;-84
2022/12/14 12:18:20;;;;;;;0.52;0.52;;;;;;;0.18;100.00;100290.50;10480245;28;20045;-84
2022/12/14 12:30:27;;;;;;;8.67;0.60;;;;;;;-1.03;100.00;100296.84;10499267;28;20028;-85
2022/12/14 12:35:41;;;;;;;0.22;0.22;;;;;;;0.39;100.00;100283.28;10487229;28;20310;-85
2022/12/14 12:40:56;;;;;;;0.10;0.10;;;;;;;0.31;100.00;100291.31;10487360;28;20047;-85
2022/12/14 12:46:20;;;;;;;0.00;0.00;;;;;;;0.46;100.00;100303.13;10486943;28;20059;-85
2022/12/14 12:51:27;;;;;;;1.58;1.40;;;;;;;0.92;100.00;100292.13;10487847;28;20094;-85
2022/12/14 12:56:46;;;;;;;0.35;0.30;;;;;;;0.44;100.00;100297.06;10486491;28;20056;-85
2022/12/14 13:01:53;;;;;;;0.10;0.10;;;;;;;1.03;100.00;100295.25;10486187;28;20587;-85
2022/12/14 13:07:01;;;;;;;0.00;0.00;;;;;;;1.02;100.00;100294.38;10469383;28;20498;-85
2022/12/14 13:12:07;;;;;;;0.05;0.05;;;;;;;0.95;100.00;100297.38;10486050;28;20041;-85
2022/12/14 13:17:32;;;;;;;0.20;0.17;;;;;;;0.61;100.00;100305.63;10469254;28;20458;-86
2022/12/14 13:22:35;;;;;;;1.30;1.20;;;;;;;0.83;100.00;100291.59;10485129;28;20044;-86
2022/12/14 13:28:14;;;;;;;0.55;0.47;;;;;;;0.47;100.00;100293.06;10468877;28;20049;-85
2022/12/14 13:33:49;;;;;;;0.22;0.22;;;;;;;0.38;100.00;100307.72;10468367;28;20503;-85
2022/12/14 13:39:22;;;;;;;0.00;0.00;;;;;;;0.49;100.00;100299.88;10426846;28;20052;-86
2022/12/14 13:44:43;;;;;;;0.95;0.60;;;;;;;0.15;100.00;100311.47;10441914;28;20063;-85
2022/12/14 13:49:54;;;;;;;0.30;0.22;;;;;;;-0.12;100.00;100308.19;10452341;28;20040;-85
2022/12/14 13:55:37;;;;;;;0.40;0.40;;;;;;;-0.97;100.00;100311.56;10449037;28;20094;-85
2022/12/14 14:01:02;;;;;;;2.03;1.13;;;;;;;-1.41;100.00;100307.94;10460444;28;20136;-85
2022/12/14 14:06:10;;;;;;;0.55;0.15;;;;;;;-1.68;100.00;100318.00;10502429;28;20045;-85
2022/12/14 14:11:22;;;;;;;1.20;1.10;;;;;;;-1.89;100.00;100319.09;10466985;28;20040;-84
2022/12/14 14:16:48;;;;;;;0.35;0.35;;;;;;;-1.93;100.00;100320.53;10458435;28;20039;-85
2022/12/14 14:22:10;;;;;;;0.93;0.93;;;;;;;-2.20;100.00;100324.66;10533558;28;20044;-86
2022/12/14 14:27:36;;;;;;;0.00;0.00;;;;;;;-2.30;100.00;100329.06;10503438;28;20044;-86
2022/12/14 14:32:41;;;;;;;0.10;0.10;;;;;;;-2.45;100.00;100331.38;10524765;28;20040;-86
2022/12/14 14:38:18;;;;;;;0.40;0.40;;;;;;;-2.53;100.00;100339.22;10507454;28;20052;-85
2022/12/14 14:43:58;;;;;;;0.10;0.10;;;;;;;-2.56;100.00;100340.75;10492919;28;20491;-85
2022/12/14 14:49:01;;;;;;;0.77;0.77;;;;;;;-2.71;100.00;100342.19;10463484;28;20048;-85
2022/12/14 14:54:15;;;;;;;0.63;0.63;;;;;;;-3.03;100.00;100350.91;10461970;28;20090;-85
2022/12/14 14:59:42;;;;;;;0.00;0.00;;;;;;;-3.16;100.00;100345.75;10476455;28;20472;-79
2022/12/14 15:04:54;;;;;;;0.00;0.00;;;;;;;-3.32;100.00;100352.22;10484427;28;20045;-79
2022/12/14 15:10:25;;;;;;;0.00;0.00;;;;;;;-3.66;100.00;100357.28;10481445;28;20057;-79
2022/12/14 15:15:43;;;;;;;0.13;0.13;;;;;;;-3.80;100.00;100365.44;10464655;28;20048;-79
2022/12/14 15:21:05;;;;;;;1.55;1.45;;;;;;;-3.76;100.00;100362.41;10464622;28;20087;-78
2022/12/14 15:26:12;;;;;;;0.20;0.20;;;;;;;-4.16;100.00;100365.28;10482036;28;20135;-78
2022/12/14 15:31:27;;;;;;;0.10;0.10;;;;;;;-5.11;100.00;100380.66;10497563;28;20039;-78
2022/12/14 15:42:48;;;;;;;0.77;0.77;;;;;;;-4.93;100.00;100387.88;10499435;28;20120;-78
2022/12/14 15:47:50;;;;;;;0.15;0.15;;;;;;;-4.91;100.00;100388.91;10482727;28;20057;-77
2022/12/14 15:52:57;;;;;;;0.25;0.25;;;;;;;-5.40;100.00;100390.00;10482829;28;20036;-77
2022/12/14 15:58:12;;;;;;;0.10;0.10;;;;;;;-5.51;100.00;100395.00;10519204;28;20067;-79
2022/12/14 16:03:26;;;;;;;1.00;0.93;;;;;;;-4.94;100.00;100413.75;10483466;28;20048;-77
2022/12/14 16:08:34;;;;;;;1.40;1.30;;;;;;;-5.31;100.00;100420.84;10508410;28;20044;-78
2022/12/14 16:13:39;;;;;;;0.77;0.52;;;;;;;-5.74;100.00;100421.59;10512714;28;20111;-78
2022/12/14 16:18:46;;;;;;;0.15;0.15;;;;;;;-6.14;100.00;100430.81;10494331;28;20047;-77
2022/12/14 16:23:51;;;;;;;;;;;;;;;-6.19;100.00;100457.13;10502720;28;20044;-77
2022/12/14 16:29:20;;;;;;;0.50;0.50;;;;;;;-6.19;100.00;100461.28;10504159;28;20011;-77
2022/12/14 16:34:23;;;;;;;0.10;0.10;;;;;;;-6.50;100.00;100458.66;10490091;28;20048;-77
2022/12/14 16:39:31;;;;;;;4.35;2.67;;;;;;;-6.24;100.00;100483.47;10508499;28;20462;-79
2022/12/14 16:44:36;;;;;;;0.03;0.03;;;;;;;-6.08;100.00;100486.53;10524987;28;20045;-78
2022/12/14 16:49:53;;;;;;;0.20;0.20;;;;;;;-6.15;100.00;100494.28;10507920;28;20055;-78
2022/12/14 16:55:10;;;;;;;0.00;0.00;;;;;;;-6.16;100.00;100502.56;10524042;28;20050;-79
2022/12/14 17:00:18;;;;;;;0.30;0.30;;;;;;;-5.98;100.00;100507.34;10508926;28;20048;-81
2022/12/14 17:05:48;;;;;;;0.05;0.05;;;;;;;-6.06;100.00;100519.25;10485519;28;20048;-81
2022/12/14 17:10:51;;;;;;;0.65;0.65;;;;;;;-6.09;100.00;100514.88;10485218;28;20446;-82
2022/12/14 17:16:02;;;;;;;2.05;1.38;;;;;;;-6.13;100.00;100517.84;10481742;28;20454;-81
2022/12/14 17:21:05;;;;;;;0.20;0.20;;;;;;;-6.53;100.00;100514.41;10469313;28;20560;-81
2022/12/14 17:26:18;;;;;;;4.20;2.85;;;;;;;-6.38;100.00;100524.88;10477093;28;20052;-81
2022/12/14 17:31:23;;;;;;;0.00;0.00;;;;;;;-6.66;100.00;100519.09;10490503;28;20412;-81
2022/12/14 17:36:24;;;;;;;0.95;0.95;;;;;;;-6.79;100.00;100534.66;10462205;28;20051;-81
2022/12/14 17:41:27;;;;;;;0.32;0.32;;;;;;;-7.08;100.00;100536.31;10471595;28;20045;-81
2022/12/14 17:46:29;;;;;;;0.00;0.00;;;;;;;-7.25;100.00;100543.91;10474209;28;20049;-81
2022/12/14 17:51:38;;;;;;;0.10;0.10;;;;;;;-7.44;100.00;100544.75;10467254;28;20052;-82
2022/12/14 17:56:40;;;;;;;0.00;0.00;;;;;;;-7.70;100.00;100553.22;10477968;28;20056;-81
2022/12/14 18:01:42;;;;;;;0.10;0.10;;;;;;;-7.69;100.00;100562.47;10475109;28;20037;-81
2022/12/14 18:06:49;;;;;;;0.10;0.10;;;;;;;-8.00;100.00;100567.13;10473320;28;20549;-81
2022/12/14 18:11:50;;;;;;;0.10;0.10;;;;;;;-7.91;100.00;100576.22;10461782;28;20076;-81
2022/12/14 18:17:13;;;;;;;0.52;0.52;;;;;;;-7.97;100.00;100589.91;10475903;28;20513;-81
2022/12/14 18:22:15;;;;;;;0.90;0.90;;;;;;;-8.30;100.00;100587.59;10473405;28;20044;-81
2022/12/14 18:27:17;;;;;;;0.03;0.03;;;;;;;-8.16;100.00;100592.28;10468841;28;20045;-81
2022/12/14 18:32:18;;;;;;;0.10;0.10;;;;;;;-8.54;100.00;100591.16;10468974;28;20045;-81
2022/12/14 18:37:30;;;;;;;0.10;0.10;;;;;;;-8.44;100.00;100591.25;10480964;28;20045;-81
2022/12/14 18:42:33;;;;;;;0.20;0.20;;;;;;;-8.43;100.00;100600.53;10480735;28;20047;-81
2022/12/14 18:47:35;;;;;;;0.10;0.10;;;;;;;-8.62;100.00;100608.78;10452932;28;20052;-81
2022/12/14 18:52:45;;;;;;;0.10;0.10;;;;;;;-8.87;100.00;100614.59;10497483;28;20127;-81
2022/12/14 18:57:49;;;;;;;2.58;2.38;;;;;;;-8.71;100.00;100615.38;10451072;28;20407;-81
2022/12/14 19:02:51;;;;;;;0.32;0.32;;;;;;;-8.72;100.00;100623.59;10480314;28;20040;-81
2022/12/14 19:07:56;;;;;;;0.20;0.20;;;;;;;-8.88;100.00;100627.81;10466473;28;20093;-81
2022/12/14 19:12:58;;;;;;;0.20;0.20;;;;;;;-8.75;100.00;100615.81;10496535;28;20040;-81
2022/12/14 19:18:00;;;;;;;0.00;0.00;;;;;;;-9.10;100.00;100634.09;10479840;28;20071;-81
2022/12/14 19:23:03;;;;;;;2.75;2.50;;;;;;;-9.25;100.00;100630.91;10483390;28;20048;-81
2022/12/14 19:28:05;;;;;;;0.20;0.20;;;;;;;-9.18;100.00;100641.50;10480180;28;20049;-81
2022/12/14 19:33:27;;;;;;;0.20;0.20;;;;;;;-9.12;100.00;100643.03;10479327;28;20624;-82
2022/12/14 19:38:30;;;;;;;0.28;0.28;;;;;;;-9.21;100.00;100651.19;10485889;28;20045;-82
2022/12/14 19:43:32;;;;;;;1.88;1.77;;;;;;;-9.44;100.00;100650.63;10444883;28;20056;-82
2022/12/14 19:48:36;;;;;;;0.60;0.60;;;;;;;-9.26;100.00;100654.09;10478461;28;20098;-81
2022/12/14 19:53:41;;;;;;;0.10;0.10;;;;;;;-9.44;100.00;100650.63;10467952;28;20049;-81
2022/12/14 19:58:44;;;;;;;0.00;0.00;;;;;;;-9.41;100.00;100652.56;10472205;28;20049;-82
2022/12/14 20:03:45;;;;;;;0.20;0.20;;;;;;;-9.50;100.00;100651.66;10468142;28;20086;-81
2022/12/14 20:08:48;;;;;;;0.32;0.32;;;;;;;-9.66;100.00;100640.13;10475267;28;20047;-81
2022/12/14 20:13:51;;;;;;;0.10;0.10;;;;;;;-9.46;100.00;100654.63;10479194;28;20617;-81
2022/12/14 20:19:02;;;;;;;0.30;0.30;;;;;;;-9.46;100.00;100654.63;10467340;28;20166;-81
2022/12/14 20:24:04;;;;;;;0.98;0.95;;;;;;;-9.63;100.00;100652.88;10480139;28;20503;-81
2022/12/14 20:29:10;;;;;;;0.30;0.30;;;;;;;-9.51;100.00;100669.84;10465020;28;20045;-82
2022/12/14 20:34:12;;;;;;;0.55;0.55;;;;;;;-9.37;100.00;100669.63;10469169;28;20125;-81
2022/12/14 20:39:13;;;;;;;0.52;0.52;;;;;;;-9.69;100.00;100668.84;10478535;28;20051;-81
2022/12/14 20:44:15;;;;;;;0.95;0.85;;;;;;;-9.68;100.00;100673.97;10478401;28;20495;-81
2022/12/14 20:49:19;;;;;;;0.52;0.52;;;;;;;-9.05;100.00;100684.47;10478718;28;20049;-81
2022/12/14 20:54:21;;;;;;;3.20;2.63;;;;;;;-9.44;100.00;100683.06;10469906;28;20040;-81
2022/12/14 20:59:22;;;;;;;0.10;0.10;;;;;;;-9.07;100.00;100700.88;10466887;28;20135;-81
2022/12/14 21:04:25;;;;;;;0.15;0.15;;;;;;;-9.64;100.00;100723.44;10482069;28;20052;-81
2022/12/14 21:09:27;;;;;;;0.20;0.20;;;;;;;-9.65;100.00;100715.78;10475799;28;20048;-81
2022/12/14 21:14:31;;;;;;;0.20;0.20;;;;;;;-9.74;100.00;100718.22;10460968;28;20048;-81
2022/12/14 21:19:34;;;;;;;0.10;0.10;;;;;;;-9.61;100.00;100712.91;10492944;28;20127;-81
2022/12/14 21:24:36;;;;;;;3.15;2.95;;;;;;;-9.28;100.00;100722.06;10479349;28;20051;-81
2022/12/14 21:29:59;;;;;;;0.15;0.15;;;;;;;-9.35;100.00;100753.00;10483535;28;20040;-81
2022/12/14 21:35:01;;;;;;;0.43;0.43;;;;;;;-9.04;100.00;100751.09;10484151;28;20492;-81
2022/12/14 21:40:03;;;;;;;9.20;6.97;;;;;;;-9.33;100.00;100761.50;10484577;28;20121;-81
2022/12/14 21:45:05;;;;;;;2.30;2.17;;;;;;;-9.54;100.00;100759.28;10458271;28;20136;-82
2022/12/14 21:50:07;;;;;;;1.85;1.75;;;;;;;-9.79;100.00;100750.16;10478133;28;20514;-81
2022/12/14 21:55:09;;;;;;;0.30;0.30;;;;;;;-9.31;100.00;100739.22;10490909;28;20060;-81
2022/12/14 22:00:11;;;;;;;0.50;0.50;;;;;;;-9.27;100.00;100744.66;10479570;28;20057;-81
2022/12/14 22:05:14;;;;;;;0.45;0.45;;;;;;;-9.36;100.00;100751.22;10463464;28;20040;-81
2022/12/14 22:10:16;;;;;;;0.20;0.20;;;;;;;-8.86;100.00;100754.56;10470836;28;20048;-81
2022/12/14 22:15:25;;;;;;;0.90;0.90;;;;;;;-8.83;100.00;100756.50;10481801;28;20045;-81
2022/12/14 22:20:26;;;;;;;0.38;0.38;;;;;;;-8.82;100.00;100763.25;10476609;28;20055;-81
2022/12/14 22:25:28;;;;;;;0.98;0.95;;;;;;;-8.68;100.00;100765.53;10484296;28;20101;-81
2022/12/14 22:30:29;;;;;;;0.15;0.15;;;;;;;-8.50;100.00;100766.50;10478895;28;20407;-82
2022/12/14 22:35:32;;;;;;;0.20;0.20;;;;;;;-8.60;100.00;100761.31;10467331;28;20098;-81
2022/12/14 22:40:34;;;;;;;0.00;0.00;;;;;;;-8.47;100.00;100771.78;10466311;28;20051;-82
2022/12/14 22:45:36;;;;;;;0.10;0.10;;;;;;;-8.23;100.00;100781.53;10482534;28;20415;-81
2022/12/14 22:50:38;;;;;;;0.10;0.10;;;;;;;-8.10;100.00;100784.50;10491586;28;20151;-81
2022/12/14 22:55:43;;;;;;;4.90;2.40;;;;;;;-8.05;100.00;100793.31;10467168;28;20460;-82
2022/12/14 23:00:52;;;;;;;0.10;0.10;;;;;;;-7.91;100.00;100788.78;10482674;28;20151;-81
2022/12/14 23:05:54;;;;;;;0.55;0.55;;;;;;;-7.92;100.00;100789.50;10466628;28;20127;-81
